createdAt,value
2022-08-20T00:01:01.655Z,100030.34
2022-08-20T00:03:33.445Z,99987.81
2022-08-20T00:06:05.147Z,100024.78
2022-08-20T00:08:34.149Z,100020.66
2022-08-20T00:11:05.888Z,99958.97
2022-08-20T00:13:38.167Z,99981.03
2022-08-20T00:16:07.023Z,99987.69
2022-08-20T00:18:37.878Z,99977.72
2022-08-20T00:21:09.790Z,99986.84
2022-08-20T00:23:39.242Z,100005.06
2022-08-20T00:26:11.291Z,99977.25
2022-08-20T00:28:40.738Z,99976.97
2022-08-20T00:31:12.242Z,99980.25
2022-08-20T00:33:41.346Z,99972.00
2022-08-20T00:36:12.303Z,99986.06
2022-08-20T00:38:43.802Z,99987.88
2022-08-20T00:41:17.647Z,100019.72
2022-08-20T00:43:49.310Z,99966.88
2022-08-20T00:46:22.243Z,100013.75
2022-08-20T00:49:01.791Z,99969.69
2022-08-20T00:51:38.390Z,100017.91
2022-08-20T00:54:11.130Z,100016.22
2022-08-20T00:56:44.185Z,99973.09
2022-08-20T00:59:17.083Z,100016.84
2022-08-20T01:01:55.551Z,99937.06
2022-08-20T01:04:26.727Z,99986.28
2022-08-20T01:06:55.639Z,99990.78
2022-08-20T01:09:50.036Z,99969.25
2022-08-20T01:12:17.922Z,99976.41
2022-08-20T01:14:48.116Z,99959.31
2022-08-20T01:17:20.427Z,99985.34
2022-08-20T01:19:53.863Z,100007.53
2022-08-20T01:22:46.966Z,99969.56
2022-08-20T01:25:25.170Z,100000.44
2022-08-20T01:27:56.494Z,99953.03
2022-08-20T01:30:28.622Z,99949.03
2022-08-20T01:32:57.552Z,99973.91
2022-08-20T01:35:26.831Z,100009.91
2022-08-20T01:37:55.882Z,99997.09
2022-08-20T01:40:41.078Z,99948.88
2022-08-20T01:43:11.539Z,99942.41
2022-08-20T01:45:43.182Z,99976.41
2022-08-20T01:48:14.387Z,99920.38
2022-08-20T01:50:49.040Z,99979.88
2022-08-20T01:53:22.340Z,99945.41
2022-08-20T01:55:51.343Z,99978.41
2022-08-20T01:58:22.289Z,99932.16
2022-08-20T02:00:50.870Z,99956.69
2022-08-20T02:03:19.448Z,99949.88
2022-08-20T02:05:48.031Z,99949.72
2022-08-20T02:08:16.823Z,99954.00
2022-08-20T02:10:46.458Z,99951.31
2022-08-20T02:13:15.050Z,100002.34
2022-08-20T02:15:45.212Z,100001.38
2022-08-20T02:18:15.760Z,99967.34
2022-08-20T02:20:46.164Z,99953.22
2022-08-20T02:23:15.747Z,99968.84
2022-08-20T02:25:47.589Z,99993.94
2022-08-20T02:28:20.897Z,100002.88
2022-08-20T02:30:53.849Z,99942.22
2022-08-20T02:33:24.570Z,99973.81
2022-08-20T02:35:56.662Z,99993.06
2022-08-20T02:38:25.958Z,100006.31
2022-08-20T02:40:54.534Z,99980.59
2022-08-20T02:43:23.120Z,99965.19
2022-08-20T02:45:53.172Z,99967.28
2022-08-20T02:48:23.476Z,100004.59
2022-08-20T02:50:55.571Z,99997.25
2022-08-20T02:53:24.322Z,99977.34
2022-08-20T02:55:53.555Z,99995.38
2022-08-20T02:58:23.428Z,100000.81
2022-08-20T03:00:53.653Z,99965.28
2022-08-20T03:03:22.915Z,100009.63
2022-08-20T03:05:53.609Z,99995.53
2022-08-20T03:08:23.591Z,99993.94
2022-08-20T03:10:53.161Z,99956.31
2022-08-20T03:13:23.072Z,99990.97
2022-08-20T03:15:58.588Z,99993.25
2022-08-20T03:18:31.509Z,99980.13
2022-08-20T03:21:00.556Z,99959.09
2022-08-20T03:23:30.114Z,99975.50
2022-08-20T03:25:59.066Z,99996.84
2022-08-20T03:28:28.145Z,99992.34
2022-08-20T03:30:59.600Z,100000.59
2022-08-20T03:33:29.370Z,100008.22
2022-08-20T03:35:58.839Z,99946.88
2022-08-20T03:38:32.615Z,99958.63
2022-08-20T03:41:03.104Z,100003.13
2022-08-20T03:43:32.670Z,99994.81
2022-08-20T03:46:03.050Z,99994.28
2022-08-20T03:48:31.768Z,99974.44
2022-08-20T03:51:01.143Z,99971.44
2022-08-20T03:53:31.798Z,99990.03
2022-08-20T03:56:04.494Z,99968.25
2022-08-20T03:58:35.029Z,99980.53
2022-08-20T04:04:12.141Z,99989.53
2022-08-20T04:06:41.371Z,99960.47
2022-08-20T04:09:11.656Z,99995.25
2022-08-20T04:11:41.258Z,99991.47
2022-08-20T04:14:11.049Z,99977.66
2022-08-20T04:16:40.676Z,99936.41
2022-08-20T04:19:10.903Z,99943.25
2022-08-20T04:21:39.785Z,99998.28
2022-08-20T04:24:08.811Z,99992.53
2022-08-20T04:26:51.468Z,99981.44
2022-08-20T04:29:20.069Z,99990.41
2022-08-20T04:31:48.699Z,99948.97
2022-08-20T04:34:19.664Z,99992.06
2022-08-20T04:36:48.676Z,99987.91
2022-08-20T04:39:17.478Z,99953.47
2022-08-20T04:41:46.359Z,99989.91
2022-08-20T04:44:14.982Z,99976.72
2022-08-20T04:46:43.853Z,99995.19
2022-08-20T04:49:12.904Z,99968.72
2022-08-20T04:51:42.893Z,99993.47
2022-08-20T04:54:14.593Z,99953.59
2022-08-20T04:56:43.330Z,99962.66
2022-08-20T04:59:11.901Z,99973.38
2022-08-20T05:01:40.440Z,99985.53
2022-08-20T05:04:09.046Z,99970.72
2022-08-20T05:06:37.831Z,99991.34
2022-08-20T05:09:07.776Z,99999.41
2022-08-20T05:11:36.864Z,100011.91
2022-08-20T05:14:08.977Z,99998.97
2022-08-20T05:16:41.319Z,99999.72
2022-08-20T05:19:12.418Z,100007.44
2022-08-20T05:21:41.437Z,99967.56
2022-08-20T05:24:12.167Z,99990.97
2022-08-20T05:26:41.056Z,100000.47
2022-08-20T05:29:09.846Z,99962.09
2022-08-20T05:31:39.488Z,99961.00
2022-08-20T05:34:11.334Z,100018.00
2022-08-20T05:36:41.286Z,99994.25
2022-08-20T05:39:12.424Z,99959.50
2022-08-20T05:41:41.579Z,100009.38
2022-08-20T05:44:13.823Z,100036.94
2022-08-20T05:46:44.079Z,100008.69
2022-08-20T05:49:15.726Z,99990.66
2022-08-20T05:51:44.652Z,100039.25
2022-08-20T05:54:15.166Z,100032.19
2022-08-20T05:56:44.059Z,99992.56
2022-08-20T05:59:14.181Z,99992.50
2022-08-20T06:01:44.081Z,100035.06
2022-08-20T06:04:28.778Z,100054.09
2022-08-20T06:07:02.939Z,100053.56
2022-08-20T06:09:33.461Z,100053.16
2022-08-20T06:12:03.995Z,100043.22
2022-08-20T06:14:34.167Z,100056.28
2022-08-20T06:17:08.002Z,100041.09
2022-08-20T06:19:38.015Z,100024.34
2022-08-20T06:22:17.691Z,100042.16
2022-08-20T06:24:51.898Z,100056.59
2022-08-20T06:27:20.781Z,100018.91
2022-08-20T06:29:50.016Z,100013.66
2022-08-20T06:32:19.986Z,100054.50
2022-08-20T06:35:02.313Z,100020.50
2022-08-20T06:37:33.112Z,100071.22
2022-08-20T06:40:07.243Z,100067.66
2022-08-20T06:42:36.887Z,100051.34
2022-08-20T06:45:06.199Z,100040.91
2022-08-20T06:47:35.540Z,100045.72
2022-08-20T06:50:04.075Z,100036.03
2022-08-20T06:52:52.401Z,100067.56
2022-08-20T06:55:23.226Z,100049.47
2022-08-20T06:57:59.519Z,100037.50
2022-08-20T07:00:29.352Z,100082.75
2022-08-20T07:02:58.230Z,100085.69
2022-08-20T07:05:26.938Z,100097.66
2022-08-20T07:07:55.715Z,100101.91
2022-08-20T07:10:27.227Z,100078.28
2022-08-20T07:12:56.127Z,100057.66
2022-08-20T07:15:27.215Z,100095.44
2022-08-20T07:18:01.673Z,100102.50
2022-08-20T07:20:31.892Z,100091.81
2022-08-20T07:23:00.752Z,100079.81
2022-08-20T07:25:33.808Z,100079.75
2022-08-20T07:28:03.992Z,100070.69
2022-08-20T07:30:56.528Z,100101.88
2022-08-20T07:33:28.317Z,100109.78
2022-08-20T07:35:57.558Z,100095.13
2022-08-20T07:38:27.876Z,100105.72
2022-08-20T07:41:00.107Z,100086.31
2022-08-20T07:43:29.370Z,100094.22
2022-08-20T07:46:01.250Z,100056.28
2022-08-20T07:48:32.658Z,100092.63
2022-08-20T07:51:22.586Z,100028.56
2022-08-20T07:54:00.671Z,100084.09
2022-08-20T07:56:30.698Z,100100.81
2022-08-20T07:59:01.717Z,100056.25
2022-08-20T08:01:32.726Z,100092.59
2022-08-20T08:04:01.470Z,100094.25
2022-08-20T08:06:32.044Z,100109.66
2022-08-20T08:09:05.662Z,100098.88
2022-08-20T08:11:38.814Z,100105.41
2022-08-20T08:14:10.799Z,100100.22
2022-08-20T08:16:40.414Z,100099.31
2022-08-20T08:19:12.145Z,100094.34
2022-08-20T08:21:41.437Z,100105.25
2022-08-20T08:24:13.466Z,100082.78
2022-08-20T08:26:45.651Z,100088.47
2022-08-20T08:29:14.235Z,100105.19
2022-08-20T08:31:42.834Z,100077.53
2022-08-20T08:34:11.788Z,100088.91
2022-08-20T08:36:40.851Z,100076.38
2022-08-20T08:39:09.478Z,100063.06
2022-08-20T08:41:47.533Z,100119.56
2022-08-20T08:44:23.518Z,100120.28
2022-08-20T08:46:56.756Z,100117.78
2022-08-20T08:49:37.387Z,100105.88
2022-08-20T08:52:11.805Z,100090.19
2022-08-20T08:54:44.085Z,100087.78
2022-08-20T08:57:12.850Z,100114.28
2022-08-20T08:59:58.388Z,100127.69
2022-08-20T09:02:32.345Z,100071.56
2022-08-20T09:05:04.441Z,100075.41
2022-08-20T09:07:34.859Z,100124.69
2022-08-20T09:10:04.065Z,100099.72
2022-08-20T09:12:33.398Z,100070.50
2022-08-20T09:15:03.656Z,100069.06
2022-08-20T09:17:32.688Z,100102.75
2022-08-20T09:20:01.405Z,100074.91
2022-08-20T09:22:31.076Z,100097.78
2022-08-20T09:25:00.467Z,100056.34
2022-08-20T09:27:29.836Z,100089.69
2022-08-20T09:29:58.560Z,100066.72
2022-08-20T09:32:28.781Z,100095.03
2022-08-20T09:34:59.158Z,100107.50
2022-08-20T09:37:35.089Z,100111.63
2022-08-20T09:40:08.326Z,100059.63
2022-08-20T09:42:41.672Z,100045.91
2022-08-20T09:45:11.848Z,100093.00
2022-08-20T09:47:56.630Z,100124.34
2022-08-20T09:50:26.981Z,100058.78
2022-08-20T09:52:56.919Z,100065.50
2022-08-20T09:55:29.994Z,100050.03
2022-08-20T09:57:59.216Z,100118.31
2022-08-20T10:00:28.067Z,100072.34
2022-08-20T10:02:58.291Z,100068.50
2022-08-20T10:05:27.004Z,100073.59
2022-08-20T10:07:55.859Z,100077.59
2022-08-20T10:10:24.841Z,100093.41
2022-08-20T10:12:55.003Z,100093.16
2022-08-20T10:15:23.911Z,100131.63
2022-08-20T10:17:53.105Z,100121.34
2022-08-20T10:20:23.524Z,100057.75
2022-08-20T10:22:52.568Z,100090.28
2022-08-20T10:25:21.762Z,100070.53
2022-08-20T10:27:50.529Z,100063.19
2022-08-20T10:30:19.565Z,100058.84
2022-08-20T10:32:50.189Z,100068.28
2022-08-20T10:35:19.801Z,100085.56
2022-08-20T10:37:50.162Z,100061.09
2022-08-20T10:40:19.291Z,100052.78
2022-08-20T10:42:48.060Z,100105.06
2022-08-20T10:45:17.663Z,100090.75
2022-08-20T10:47:46.783Z,100068.84
2022-08-20T10:50:20.165Z,100099.66
2022-08-20T10:52:50.463Z,100050.25
2022-08-20T10:55:20.152Z,100088.38
2022-08-20T10:57:51.395Z,100076.41
2022-08-20T11:00:21.552Z,100068.22
2022-08-20T11:02:52.226Z,100056.94
2022-08-20T11:05:21.133Z,100053.34
2022-08-20T11:07:59.816Z,100120.22
2022-08-20T11:10:31.111Z,100076.97
2022-08-20T11:12:59.984Z,100054.56
2022-08-20T11:15:29.587Z,100111.75
2022-08-20T11:17:58.616Z,100088.03
2022-08-20T11:20:28.594Z,100088.25
2022-08-20T11:23:06.486Z,100058.72
2022-08-20T11:25:35.375Z,100007.19
2022-08-20T11:28:04.823Z,100031.72
2022-08-20T11:30:36.843Z,100020.97
2022-08-20T11:33:09.323Z,100039.84
2022-08-20T11:35:48.448Z,100028.53
2022-08-20T11:38:19.516Z,100019.94
2022-08-20T11:40:48.435Z,100037.72
2022-08-20T11:43:18.271Z,100056.25
2022-08-20T11:45:49.374Z,100023.44
2022-08-20T11:48:18.376Z,100044.41
2022-08-20T11:50:47.453Z,100029.44
2022-08-20T11:53:22.349Z,100026.94
2022-08-20T11:55:51.519Z,100030.97
2022-08-20T11:58:20.283Z,100037.84
2022-08-20T12:00:49.249Z,100046.78
2022-08-20T12:03:22.315Z,99989.34
2022-08-20T12:05:51.240Z,99980.16
2022-08-20T12:08:27.021Z,99974.84
2022-08-20T12:10:58.053Z,100009.50
2022-08-20T12:13:30.746Z,100023.28
2022-08-20T12:16:16.772Z,99966.75
2022-08-20T12:18:46.446Z,99973.88
2022-08-20T12:21:15.214Z,100010.56
2022-08-20T12:23:45.760Z,100015.25
2022-08-20T12:26:16.859Z,99987.84
2022-08-20T12:28:45.570Z,100005.13
2022-08-20T12:31:14.258Z,99976.00
2022-08-20T12:33:43.064Z,99973.94
2022-08-20T12:36:12.340Z,100011.53
2022-08-20T12:38:40.991Z,99992.06
2022-08-20T12:41:11.130Z,99982.38
2022-08-20T12:43:44.040Z,99977.66
2022-08-20T12:46:12.819Z,100008.59
2022-08-20T12:48:42.182Z,99962.50
2022-08-20T12:51:11.491Z,99963.47
2022-08-20T12:53:40.259Z,99928.34
2022-08-20T12:56:10.792Z,99979.66
2022-08-20T12:58:41.838Z,99983.66
2022-08-20T13:01:10.475Z,99955.34
2022-08-20T13:03:43.136Z,99999.53
2022-08-20T13:06:13.932Z,99949.69
2022-08-20T13:08:43.051Z,100013.72
2022-08-20T13:11:13.042Z,100007.84
2022-08-20T13:13:43.744Z,99935.00
2022-08-20T13:16:12.419Z,99985.31
2022-08-20T13:18:41.366Z,99962.91
2022-08-20T13:21:10.307Z,99974.59
2022-08-20T13:23:38.886Z,100016.53
2022-08-20T13:26:07.800Z,99983.44
2022-08-20T13:28:37.798Z,100005.47
2022-08-20T13:31:06.574Z,99987.81
2022-08-20T13:33:35.229Z,100027.50
2022-08-20T13:36:03.898Z,99995.75
2022-08-20T13:38:32.473Z,99995.47
2022-08-20T13:41:01.026Z,100031.38
2022-08-20T13:43:29.725Z,100011.19
2022-08-20T13:45:59.807Z,99990.56
2022-08-20T13:48:28.318Z,100024.88
2022-08-20T13:50:57.010Z,100034.69
2022-08-20T13:53:26.003Z,100002.59
2022-08-20T13:55:54.630Z,99981.94
2022-08-20T13:58:24.049Z,100035.81
2022-08-20T14:00:52.623Z,99968.34
2022-08-20T14:03:25.295Z,100031.44
2022-08-20T14:05:54.513Z,100033.63
2022-08-20T14:08:25.512Z,100020.03
2022-08-20T14:10:54.242Z,100024.91
2022-08-20T14:13:25.915Z,99996.06
2022-08-20T14:15:55.299Z,100016.75
2022-08-20T14:18:25.355Z,99981.91
2022-08-20T14:20:53.975Z,100035.25
2022-08-20T14:23:22.882Z,100017.56
2022-08-20T14:25:51.612Z,100030.91
2022-08-20T14:28:22.386Z,99986.69
2022-08-20T14:30:53.483Z,100024.50
2022-08-20T14:33:25.040Z,100029.56
2022-08-20T14:35:54.682Z,99965.50
2022-08-20T14:38:23.297Z,100032.00
2022-08-20T14:40:51.992Z,100009.97
2022-08-20T14:43:20.766Z,100022.56
2022-08-20T14:45:49.333Z,99977.03
2022-08-20T14:48:17.951Z,99975.16
2022-08-20T14:50:47.937Z,100016.06
2022-08-20T14:53:16.513Z,99982.72
2022-08-20T14:55:45.143Z,99986.56
2022-08-20T14:58:15.436Z,99987.03
2022-08-20T15:00:44.829Z,99961.75
2022-08-20T15:03:14.547Z,100012.69
2022-08-20T15:05:43.985Z,100000.66
2022-08-20T15:08:14.255Z,99978.94
2022-08-20T15:10:43.031Z,99998.00
2022-08-20T15:13:11.649Z,99982.47
2022-08-20T15:15:40.834Z,99960.41
2022-08-20T15:18:09.615Z,99986.56
2022-08-20T15:20:38.795Z,99977.28
2022-08-20T15:23:07.546Z,99999.34
2022-08-20T15:25:38.468Z,99947.28
2022-08-20T15:28:08.869Z,99975.34
2022-08-20T15:30:38.587Z,99985.44
2022-08-20T15:33:07.649Z,99934.22
2022-08-20T15:35:36.819Z,99987.03
2022-08-20T15:38:05.449Z,99958.72
2022-08-20T15:40:35.457Z,99960.13
2022-08-20T15:43:06.421Z,99983.28
2022-08-20T15:45:35.967Z,99981.06
2022-08-20T15:48:11.271Z,99970.72
2022-08-20T15:50:55.874Z,99940.19
2022-08-20T15:53:30.061Z,99961.53
2022-08-20T15:56:05.628Z,99972.97
2022-08-20T15:58:40.937Z,99925.78
2022-08-20T16:01:24.866Z,99975.63
2022-08-20T16:04:46.030Z,99984.50
2022-08-20T16:07:21.029Z,99943.84
2022-08-20T16:10:04.083Z,99958.34
2022-08-20T16:12:35.340Z,99984.75
2022-08-20T16:15:10.162Z,99972.72
2022-08-20T16:17:45.146Z,99987.41
2022-08-20T16:20:32.892Z,99992.28
2022-08-20T16:23:04.926Z,99944.50
2022-08-20T16:25:46.774Z,99976.00
2022-08-20T16:28:24.631Z,99943.81
2022-08-20T16:31:03.349Z,99988.78
2022-08-20T16:33:38.329Z,99977.53
2022-08-20T16:36:12.712Z,99964.63
2022-08-20T16:38:48.141Z,99957.34
2022-08-20T16:41:23.043Z,99994.28
2022-08-20T16:43:54.940Z,99999.91
2022-08-20T16:46:29.033Z,99986.19
2022-08-20T16:48:59.995Z,99995.94
2022-08-20T16:51:36.793Z,99956.31
2022-08-20T16:54:06.656Z,99997.56
2022-08-20T16:56:37.785Z,99956.88
2022-08-20T16:59:09.518Z,99993.50
2022-08-20T17:01:40.223Z,99954.13
2022-08-20T17:04:09.500Z,99921.13
2022-08-20T17:06:44.723Z,99978.34
2022-08-20T17:09:22.319Z,99958.75
2022-08-20T17:11:53.087Z,99952.78
2022-08-20T17:14:21.724Z,99965.28
2022-08-20T17:16:53.952Z,100000.13
2022-08-20T17:19:29.279Z,100003.72
2022-08-20T17:22:08.751Z,100002.47
2022-08-20T17:24:37.870Z,99969.31
2022-08-20T17:27:13.500Z,99945.34
2022-08-20T17:30:20.248Z,99944.69
2022-08-20T17:33:01.823Z,99952.03
2022-08-20T17:35:34.275Z,99969.47
2022-08-20T17:38:04.234Z,100008.50
2022-08-20T17:40:46.002Z,99985.13
2022-08-20T17:43:27.705Z,100006.69
2022-08-20T17:45:57.639Z,100006.81
2022-08-20T17:48:33.613Z,99995.69
2022-08-20T17:51:10.819Z,100005.28
2022-08-20T17:53:44.716Z,100005.78
2022-08-20T17:56:21.063Z,99967.28
2022-08-20T17:58:54.992Z,100002.22
2022-08-20T18:01:26.043Z,99979.72
2022-08-20T18:03:56.246Z,100010.81
2022-08-20T18:06:32.360Z,100006.94
2022-08-20T18:09:06.009Z,100029.97
2022-08-20T18:11:40.630Z,99996.47
2022-08-20T18:14:36.107Z,99986.69
2022-08-20T18:17:15.638Z,100008.16
2022-08-20T18:20:10.537Z,100028.94
2022-08-20T18:22:48.138Z,99986.63
2022-08-20T18:25:29.308Z,100037.16
2022-08-20T18:28:04.848Z,100033.50
2022-08-20T18:30:34.468Z,99999.13
2022-08-20T18:33:09.015Z,100014.94
2022-08-20T18:35:45.819Z,100018.91
2022-08-20T18:38:28.503Z,100000.22
2022-08-20T18:41:08.295Z,100036.56
2022-08-20T18:43:36.975Z,100020.84
2022-08-20T18:46:21.700Z,100042.34
2022-08-20T18:48:57.104Z,100010.66
2022-08-20T18:51:33.991Z,100007.56
2022-08-20T18:54:02.639Z,99992.03
2022-08-20T18:56:38.321Z,100030.63
2022-08-20T18:59:13.190Z,100069.41
2022-08-20T19:01:44.016Z,100049.53
2022-08-20T19:04:27.638Z,100077.66
2022-08-20T19:07:02.970Z,100064.09
2022-08-20T19:09:56.145Z,100081.03
2022-08-20T19:12:42.119Z,100084.84
2022-08-20T19:15:16.931Z,100040.75
2022-08-20T19:17:56.998Z,100033.78
2022-08-20T19:20:29.447Z,100045.72
2022-08-20T19:23:06.808Z,100048.63
2022-08-20T19:25:38.778Z,100096.44
2022-08-20T19:28:16.227Z,100062.16
2022-08-20T19:30:45.157Z,100101.78
2022-08-20T19:33:14.074Z,100091.41
2022-08-20T19:35:42.921Z,100062.94
2022-08-20T19:38:17.945Z,100108.41
2022-08-20T19:40:46.974Z,100124.47
2022-08-20T19:43:21.886Z,100122.59
2022-08-20T19:45:53.043Z,100086.88
2022-08-20T19:48:40.571Z,100090.69
2022-08-20T19:51:16.350Z,100082.75
2022-08-20T19:53:49.855Z,100082.09
2022-08-20T19:56:21.544Z,100129.53
2022-08-20T19:59:00.149Z,100072.47
2022-08-20T20:01:29.669Z,100094.88
2022-08-20T20:04:01.054Z,100101.38
2022-08-20T20:06:33.980Z,100142.63
2022-08-20T20:09:06.915Z,100087.28
2022-08-20T20:11:38.957Z,100112.16
2022-08-20T20:14:10.474Z,100118.00
2022-08-20T20:16:41.183Z,100141.25
2022-08-20T20:19:28.615Z,100123.66
2022-08-20T20:22:16.104Z,100123.75
2022-08-20T20:25:00.454Z,100125.13
2022-08-20T20:27:30.160Z,100142.16
2022-08-20T20:30:03.300Z,100140.06
2022-08-20T20:32:34.135Z,100193.97
2022-08-20T20:35:06.353Z,100194.28
2022-08-20T20:37:48.866Z,100197.41
2022-08-20T20:40:26.277Z,100128.88
2022-08-20T20:43:06.210Z,100168.09
2022-08-20T20:45:37.629Z,100165.47
2022-08-20T20:48:18.327Z,100181.59
2022-08-20T20:50:50.100Z,100213.78
2022-08-20T20:53:51.021Z,100180.06
2022-08-20T20:56:33.076Z,100220.94
2022-08-20T20:59:06.148Z,100213.28
2022-08-20T21:01:49.555Z,100193.84
2022-08-20T21:04:20.562Z,100229.06
2022-08-20T21:06:49.886Z,100186.00
2022-08-20T21:09:20.834Z,100193.06
2022-08-20T21:11:51.314Z,100192.47
2022-08-20T21:14:20.209Z,100239.09
2022-08-20T21:16:49.280Z,100193.53
2022-08-20T21:19:18.887Z,100196.22
2022-08-20T21:21:47.576Z,100248.13
2022-08-20T21:24:16.260Z,100240.13
2022-08-20T21:26:45.485Z,100175.63
2022-08-20T21:29:18.551Z,100226.09
2022-08-20T21:31:47.690Z,100239.81
2022-08-20T21:34:17.571Z,100239.19
2022-08-20T21:36:46.641Z,100207.69
2022-08-20T21:39:15.564Z,100249.72
2022-08-20T21:41:45.466Z,100204.56
2022-08-20T21:44:21.323Z,100244.06
2022-08-20T21:46:50.824Z,100241.59
2022-08-20T21:49:20.830Z,100243.97
2022-08-20T21:51:50.114Z,100207.31
2022-08-20T21:54:20.042Z,100208.38
2022-08-20T21:56:53.199Z,100194.25
2022-08-20T21:59:25.348Z,100206.06
2022-08-20T22:01:54.121Z,100238.25
2022-08-20T22:04:23.295Z,100188.88
2022-08-20T22:06:52.306Z,100206.72
2022-08-20T22:09:21.100Z,100201.13
2022-08-20T22:11:53.993Z,100245.75
2022-08-20T22:14:25.254Z,100209.69
2022-08-20T22:16:53.888Z,100183.53
2022-08-20T22:19:22.774Z,100255.03
2022-08-20T22:21:54.214Z,100260.75
2022-08-20T22:24:24.306Z,100253.09
2022-08-20T22:26:52.938Z,100255.31
2022-08-20T22:29:21.968Z,100231.13
2022-08-20T22:31:52.088Z,100254.19
2022-08-20T22:34:21.885Z,100262.00
2022-08-20T22:37:00.263Z,100234.31
2022-08-20T22:39:29.250Z,100256.72
2022-08-20T22:41:59.853Z,100264.50
2022-08-20T22:44:28.708Z,100259.88
2022-08-20T22:47:04.023Z,100264.19
2022-08-20T22:49:35.298Z,100271.84
2022-08-20T22:52:04.511Z,100273.00
2022-08-20T22:54:34.382Z,100248.28
2022-08-20T22:57:03.379Z,100275.03
2022-08-20T22:59:32.976Z,100249.94
2022-08-20T23:02:20.678Z,100242.34
2022-08-20T23:04:49.370Z,100269.53
2022-08-20T23:07:21.125Z,100248.81
2022-08-20T23:09:49.802Z,100281.50
2022-08-20T23:12:18.682Z,100244.00
2022-08-20T23:14:47.368Z,100248.97
2022-08-20T23:17:19.671Z,100265.91
2022-08-20T23:19:49.699Z,100268.56
2022-08-20T23:22:19.556Z,100217.41
2022-08-20T23:24:48.942Z,100273.88
2022-08-20T23:27:19.573Z,100230.38
2022-08-20T23:29:48.998Z,100247.63
2022-08-20T23:32:19.744Z,100253.44
2022-08-20T23:34:48.604Z,100248.94
2022-08-20T23:37:19.291Z,100282.47
2022-08-20T23:39:49.918Z,100290.44
2022-08-20T23:42:18.886Z,100293.75
2022-08-20T23:44:47.514Z,100212.34
2022-08-20T23:47:23.094Z,100228.28
2022-08-20T23:49:52.073Z,100278.13
2022-08-20T23:52:20.708Z,100256.47
2022-08-20T23:54:49.425Z,100273.25
2022-08-20T23:57:21.095Z,100263.28
2022-08-20T23:59:52.930Z,100246.00
